Aérodrome :







RETROUVEZ-NOUS SUR...

 
LOGIN :

S'inscrire | Disclaimer

   EN    FR    IT 

 









Légende :    VFR   VFR Marginal   IFR   IFR Intensif   IFR Très Intensif
Visi : 
Plafond : 
>= 8 km
>= 3000ft
5 à 8 km
1000 à 3000 ft
1500m à 5 km
500 à 1000 ft
800 à 1500m
200 à 500 ft
< 800m
< 200 ft
Symboles :   Orages  Brouillard  Fortes neiges  Fortes précipitations  Vent > 20 kt






- Altitude de l'aérodrome : 1825 ft


K8B0 - Steven A. Bean Municipal

DERNIER METAR :
  • 261555Z AUTO 00000KT 9SM BKN005 OVC009 02/01 A3005 RMK AO2

METARs EXPIRÉS :
  • 261535Z AUTO 00000KT 1 1/2SM BR OVC003 01/01 A3006 RMK AO2 VIS 1V3
  • 261515Z AUTO 00000KT 1/2SM FG BKN003 OVC007 01/01 A3008 RMK AO2
  • 261455Z AUTO 00000KT 1/2SM FG 01/00 A3009 RMK AO2 P0001
  • 261435Z AUTO 00000KT 1 1/4SM BR OVC007 01/01 A3009 RMK AO2
  • 261415Z AUTO 00000KT 3/4SM BR OVC009 01/01 A3009 RMK AO2
  • 261355Z AUTO 00000KT 2 1/2SM BR OVC009 01/00 A3011 RMK AO2
  • 261335Z AUTO 00000KT 9SM OVC011 01/01 A3011 RMK AO2
  • 261315Z AUTO 00000KT 4SM BR SCT009 OVC013 01/00 A3011 RMK AO2
  • 261255Z AUTO 00000KT 3SM BR BKN011 OVC015 01/00 A3011 RMK AO2 P0004

TAF N/A



MET'MAP, la Météo Aéronautique d'un coup d'oeil ! - Copyright ORBIFLY Décembre 2007 - Disclaimer

ORBIFLY MET'MAP TEAM :

Programmation & Développement : Alexandra Zaïnal
Sur une idée originale de : Baudouin d'Aumeries
Assistance à la programmation : Marc-Olivier Méhu
Soutien technique & logistique : Manuel Goepfert

Contact : metmap@orbifly.com




SOURCES & CREDITS :

   NOAA